createdAt,value
2022-11-09T05:19:02.567Z,67.29
2022-11-09T05:21:05.511Z,66.73
2022-11-09T05:23:26.111Z,66.51
2022-11-09T05:25:29.213Z,65.89
2022-11-09T05:27:32.177Z,65.89
2022-11-09T05:29:35.520Z,65.78
2022-11-09T05:31:39.461Z,65.70
2022-11-09T05:33:42.168Z,65.68
2022-11-09T05:35:46.478Z,65.39
2022-11-09T05:37:50.212Z,65.49
2022-11-09T05:39:53.191Z,65.41
2022-11-09T05:41:56.223Z,65.52
2022-11-09T05:43:59.107Z,65.58
2022-11-09T05:46:06.355Z,65.58
2022-11-09T05:48:10.251Z,65.70
2022-11-09T05:50:16.757Z,65.73
2022-11-09T05:52:22.506Z,65.54
2022-11-09T05:54:25.692Z,65.87
2022-11-09T05:56:28.775Z,65.96
2022-11-09T05:58:33.149Z,65.74
2022-11-09T06:00:43.134Z,65.57
2022-11-09T06:02:46.167Z,65.89
2022-11-09T06:04:49.450Z,65.75
2022-11-09T06:06:52.420Z,65.61
2022-11-09T06:08:56.814Z,65.78
2022-11-09T06:11:00.684Z,65.82
2022-11-09T06:13:04.111Z,65.79
2022-11-09T06:15:08.659Z,65.99
2022-11-09T06:17:11.816Z,66.10
2022-11-09T06:19:14.765Z,65.94
2022-11-09T06:21:17.680Z,66.04
2022-11-09T06:23:25.433Z,66.14
2022-11-09T06:25:29.862Z,66.06
2022-11-09T06:27:32.934Z,66.10
2022-11-09T06:29:36.121Z,66.11
2022-11-09T06:31:39.018Z,66.02
2022-11-09T06:33:42.728Z,66.37
2022-11-09T06:35:45.524Z,66.20
2022-11-09T06:37:48.537Z,66.21
2022-11-09T06:39:51.786Z,66.40
2022-11-09T06:41:56.156Z,66.33
2022-11-09T06:43:59.256Z,66.19
2022-11-09T06:46:04.490Z,66.18
2022-11-09T06:48:07.780Z,66.01
2022-11-09T06:50:12.413Z,66.25
2022-11-09T06:52:15.489Z,66.04
2022-11-09T06:54:18.616Z,66.20
2022-11-09T06:56:21.660Z,66.15
2022-11-09T06:58:26.118Z,66.19
2022-11-09T07:00:29.232Z,65.89
2022-11-09T07:02:32.229Z,66.02
2022-11-09T07:04:35.275Z,65.97
2022-11-09T07:06:41.523Z,65.66
2022-11-09T07:08:44.421Z,65.65
2022-11-09T07:10:47.148Z,65.81
2022-11-09T07:12:50.169Z,65.61
2022-11-09T07:14:54.570Z,65.36
2022-11-09T07:16:58.042Z,65.27
2022-11-09T07:19:01.476Z,65.30
2022-11-09T07:21:13.793Z,65.30
2022-11-09T07:23:18.007Z,65.15
2022-11-09T07:25:22.183Z,64.97
2022-11-09T07:27:28.122Z,65.04
2022-11-09T07:29:32.035Z,65.01
2022-11-09T07:31:36.588Z,64.83
2022-11-09T07:33:39.518Z,64.72
2022-11-09T07:35:42.962Z,64.43
2022-11-09T07:37:48.217Z,64.69
2022-11-09T07:39:51.190Z,64.39
2022-11-09T07:41:55.701Z,64.43
2022-11-09T07:43:59.270Z,64.11
2022-11-09T07:46:08.521Z,64.31
2022-11-09T07:48:13.769Z,64.09
2022-11-09T07:50:16.839Z,64.06
2022-11-09T07:52:21.298Z,63.65
2022-11-09T07:54:27.450Z,63.77
2022-11-09T07:56:33.364Z,63.60
2022-11-09T07:58:38.841Z,63.55
2022-11-09T08:00:45.588Z,63.67
2022-11-09T08:02:54.764Z,63.69
2022-11-09T08:04:59.220Z,63.26
2022-11-09T08:07:05.314Z,63.28
2022-11-09T08:09:14.196Z,63.40
2022-11-09T08:11:24.617Z,63.23
2022-11-09T08:13:32.857Z,63.30
2022-11-09T08:15:42.063Z,63.09
2022-11-09T08:17:45.994Z,62.97
2022-11-09T08:19:48.836Z,63.03
2022-11-09T08:21:58.987Z,62.96
2022-11-09T08:24:17.027Z,62.94
2022-11-09T08:26:28.585Z,62.83
2022-11-09T08:28:32.110Z,62.77
2022-11-09T08:30:36.348Z,62.87
2022-11-09T08:32:49.672Z,62.80
2022-11-09T08:34:52.693Z,62.58
2022-11-09T08:37:11.783Z,62.45
2022-11-09T08:39:14.903Z,62.48
2022-11-09T08:41:23.319Z,62.51
2022-11-09T08:43:27.187Z,62.54
2022-11-09T08:45:36.177Z,62.82
2022-11-09T08:47:43.386Z,62.47
2022-11-09T08:49:49.033Z,62.50
2022-11-09T08:51:56.470Z,62.55
2022-11-09T08:53:59.656Z,62.41
2022-11-09T08:56:08.839Z,62.52
2022-11-09T08:58:12.053Z,62.35
2022-11-09T09:00:16.187Z,62.21
2022-11-09T09:02:19.437Z,62.18
2022-11-09T09:04:24.078Z,62.39
2022-11-09T09:06:31.057Z,62.34
2022-11-09T09:08:39.391Z,62.09
2022-11-09T09:10:44.422Z,62.29
2022-11-09T09:12:49.275Z,62.23
2022-11-09T09:14:54.872Z,62.18
2022-11-09T09:17:05.767Z,62.17
2022-11-09T09:19:10.084Z,61.97
2022-11-09T09:21:13.720Z,62.16
2022-11-09T09:23:17.627Z,62.16
2022-11-09T09:25:22.036Z,62.28
2022-11-09T09:27:26.109Z,62.10
2022-11-09T09:29:34.933Z,62.08
2022-11-09T09:31:41.572Z,62.06
2022-11-09T09:33:47.591Z,61.99
2022-11-09T09:35:53.672Z,62.06
2022-11-09T09:38:01.400Z,61.98
2022-11-09T09:40:10.892Z,62.01
2022-11-09T09:42:21.841Z,62.15
2022-11-09T09:44:34.518Z,62.10
2022-11-09T09:46:46.405Z,62.00
2022-11-09T09:49:03.185Z,62.03
2022-11-09T09:51:14.259Z,61.95
2022-11-09T09:53:25.501Z,61.82
2022-11-09T09:55:41.047Z,61.88
2022-11-09T09:57:50.718Z,62.01
2022-11-09T09:59:57.707Z,61.94
2022-11-09T10:02:04.442Z,61.87
2022-11-09T10:04:23.041Z,61.67
2022-11-09T10:06:47.478Z,61.83
2022-11-09T10:09:00.722Z,61.90
2022-11-09T10:11:17.552Z,62.00
2022-11-09T10:13:52.871Z,61.84
2022-11-09T10:16:06.977Z,62.15
2022-11-09T10:18:27.416Z,61.87
2022-11-09T10:20:43.806Z,61.92
2022-11-09T10:23:01.906Z,62.05
2022-11-09T10:25:37.636Z,62.11
2022-11-09T10:27:51.538Z,62.05
2022-11-09T10:30:04.282Z,61.85
2022-11-09T10:32:16.039Z,62.19
2022-11-09T10:34:21.583Z,61.91
2022-11-09T10:36:30.709Z,62.02
2022-11-09T10:38:39.401Z,62.04
2022-11-09T10:40:47.023Z,62.04
2022-11-09T10:42:52.078Z,62.02
2022-11-09T10:44:56.609Z,62.17
2022-11-09T10:47:15.009Z,62.26
2022-11-09T10:49:23.900Z,62.07
2022-11-09T10:51:40.371Z,62.19
2022-11-09T10:53:45.972Z,62.09
2022-11-09T10:55:55.204Z,61.96
2022-11-09T10:58:02.898Z,62.02
2022-11-09T11:00:15.466Z,62.18
2022-11-09T11:02:47.885Z,62.25
2022-11-09T11:04:53.735Z,62.32
2022-11-09T11:06:57.173Z,62.21
2022-11-09T11:09:16.586Z,62.30
2022-11-09T11:11:34.254Z,62.36
2022-11-09T11:13:38.333Z,62.26
2022-11-09T11:15:43.261Z,62.13
2022-11-09T11:17:46.289Z,62.40
2022-11-09T11:19:50.166Z,62.45
2022-11-09T11:22:23.151Z,62.45
2022-11-09T11:24:41.504Z,62.14
2022-11-09T11:26:55.693Z,62.54
2022-11-09T11:29:03.140Z,62.41
2022-11-09T11:31:17.538Z,62.56
2022-11-09T11:33:23.637Z,62.49
2022-11-09T11:35:35.737Z,62.61
2022-11-09T11:37:52.633Z,62.58
2022-11-09T11:40:05.473Z,62.59
2022-11-09T11:42:33.751Z,62.50
2022-11-09T11:45:03.171Z,62.61
2022-11-09T11:47:25.856Z,62.62
2022-11-09T11:49:52.626Z,62.75
2022-11-09T11:52:04.175Z,62.48
2022-11-09T11:54:19.223Z,62.73
2022-11-09T11:56:27.588Z,62.86
2022-11-09T11:58:48.892Z,62.75
2022-11-09T12:01:05.369Z,62.67
2022-11-09T12:03:28.532Z,62.84
2022-11-09T12:05:58.228Z,63.05
2022-11-09T12:08:12.273Z,62.98
2022-11-09T12:10:28.581Z,63.10
2022-11-09T12:12:48.511Z,63.09
2022-11-09T12:15:02.250Z,62.98
2022-11-09T12:17:15.720Z,63.15
2022-11-09T12:19:41.557Z,63.15
2022-11-09T12:21:55.904Z,63.28
2022-11-09T12:24:15.558Z,63.22
2022-11-09T12:26:35.848Z,63.40
2022-11-09T12:28:57.879Z,63.42
2022-11-09T12:31:09.366Z,63.33
2022-11-09T12:33:22.260Z,63.58
2022-11-09T12:35:30.370Z,63.56
2022-11-09T12:37:37.657Z,63.52
2022-11-09T12:39:46.410Z,63.63
2022-11-09T12:41:56.354Z,63.77
2022-11-09T12:44:09.349Z,63.75
2022-11-09T12:46:20.643Z,63.87
2022-11-09T12:48:29.239Z,64.00
2022-11-09T12:50:35.387Z,64.07
2022-11-09T12:52:42.057Z,64.08
2022-11-09T12:54:54.666Z,64.19
2022-11-09T12:57:04.858Z,64.07
2022-11-09T12:59:37.731Z,64.11
2022-11-09T13:01:51.436Z,64.15
2022-11-09T13:04:02.137Z,64.11
2022-11-09T13:06:26.591Z,64.33
2022-11-09T13:08:39.807Z,64.29
2022-11-09T13:10:43.149Z,64.15
2022-11-09T13:12:49.793Z,64.49
2022-11-09T13:14:54.080Z,64.52
2022-11-09T13:17:01.608Z,64.36
2022-11-09T13:19:07.290Z,64.59
2022-11-09T13:21:38.404Z,64.63
2022-11-09T13:26:24.723Z,64.56
2022-11-09T13:29:11.992Z,64.83
2022-11-09T13:31:17.700Z,65.04
2022-11-09T13:33:30.908Z,64.97
2022-11-09T13:36:00.398Z,64.82
2022-11-09T13:38:09.692Z,64.85
2022-11-09T13:40:42.867Z,65.02
2022-11-09T13:42:59.502Z,64.92
2022-11-09T13:45:32.061Z,65.15
2022-11-09T13:47:39.981Z,65.12
2022-11-09T13:49:52.398Z,65.29
2022-11-09T13:52:02.929Z,65.35
2022-11-09T13:54:09.938Z,65.26
2022-11-09T13:56:27.501Z,65.18
2022-11-09T13:58:45.058Z,65.33
2022-11-09T14:00:56.468Z,65.32
2022-11-09T14:03:09.097Z,65.30
2022-11-09T14:05:25.751Z,65.36
2022-11-09T14:07:36.926Z,65.44
2022-11-09T14:09:55.319Z,65.30
2022-11-09T14:12:23.286Z,65.33
2022-11-09T14:15:02.262Z,65.49
2022-11-09T14:17:16.513Z,65.51
2022-11-09T14:19:29.807Z,65.65
2022-11-09T14:21:44.192Z,65.60
2022-11-09T14:23:49.730Z,65.73
2022-11-09T14:25:58.761Z,65.79
2022-11-09T14:28:01.795Z,65.70
2022-11-09T14:30:16.727Z,65.79
2022-11-09T14:32:35.833Z,66.05
2022-11-09T14:34:43.561Z,65.93
2022-11-09T14:36:46.670Z,65.84
2022-11-09T14:39:01.608Z,65.97
2022-11-09T14:41:07.606Z,66.02
2022-11-09T14:43:32.486Z,65.94
2022-11-09T14:45:35.605Z,65.83
2022-11-09T14:47:49.685Z,66.00
2022-11-09T14:49:53.297Z,65.99
2022-11-09T14:51:58.527Z,66.18
2022-11-09T14:54:03.684Z,66.12
2022-11-09T14:56:15.445Z,66.07
2022-11-09T14:58:22.807Z,65.78
2022-11-09T15:00:30.392Z,66.13
2022-11-09T15:02:37.442Z,66.11
2022-11-09T15:04:59.065Z,66.28
2022-11-09T15:07:07.263Z,66.14
2022-11-09T15:09:19.697Z,66.32
2022-11-09T15:11:32.133Z,66.47
2022-11-09T15:13:38.491Z,66.34
2022-11-09T15:15:41.537Z,66.36
2022-11-09T15:17:47.883Z,66.49
2022-11-09T15:19:55.540Z,66.31
2022-11-09T15:21:59.377Z,66.44
2022-11-09T15:24:16.059Z,66.58
2022-11-09T15:26:36.159Z,66.66
2022-11-09T15:28:46.685Z,66.77
2022-11-09T15:31:06.976Z,66.63
2022-11-09T15:33:21.272Z,66.75
2022-11-09T15:35:26.336Z,66.72
2022-11-09T15:37:31.325Z,66.73
2022-11-09T15:39:34.314Z,66.88
2022-11-09T15:41:38.705Z,66.82
2022-11-09T15:43:42.836Z,66.76
2022-11-09T15:45:56.147Z,66.86
2022-11-09T15:48:03.536Z,67.12
2022-11-09T15:50:16.236Z,67.05
2022-11-09T15:52:26.491Z,66.85
2022-11-09T15:54:32.007Z,67.00
2022-11-09T15:56:37.875Z,67.02
2022-11-09T15:58:44.836Z,67.26
2022-11-09T16:00:48.203Z,67.23
2022-11-09T16:02:56.029Z,67.13
2022-11-09T16:05:06.858Z,67.46
2022-11-09T16:07:15.888Z,67.23
2022-11-09T16:09:21.868Z,67.43
2022-11-09T16:11:24.881Z,67.73
2022-11-09T16:13:33.159Z,67.76
2022-11-09T16:15:37.478Z,67.64
2022-11-09T16:17:43.888Z,67.67
2022-11-09T16:19:54.163Z,67.58
2022-11-09T16:22:02.250Z,67.57
2022-11-09T16:24:11.221Z,67.85
2022-11-09T16:26:33.189Z,67.55
2022-11-09T16:28:43.145Z,67.58
2022-11-09T16:30:49.553Z,67.45
2022-11-09T16:32:55.630Z,67.44
2022-11-09T16:35:23.447Z,67.63
2022-11-09T16:37:22.714Z,67.51
2022-11-09T16:39:29.445Z,67.44
2022-11-09T16:41:39.464Z,67.57
2022-11-09T16:43:43.189Z,67.56
2022-11-09T16:45:49.596Z,67.39
2022-11-09T16:47:57.524Z,67.53
2022-11-09T16:50:00.423Z,67.40
2022-11-09T16:52:03.210Z,67.43
2022-11-09T16:54:06.096Z,67.49
2022-11-09T16:56:09.218Z,67.27
2022-11-09T16:58:13.699Z,67.51
2022-11-09T17:00:19.772Z,67.58
2022-11-09T17:02:24.812Z,67.60
2022-11-09T17:04:27.691Z,67.46
2022-11-09T17:06:30.891Z,67.53
2022-11-09T17:08:34.164Z,67.42
2022-11-09T17:10:42.856Z,67.45
2022-11-09T17:12:46.885Z,67.69
2022-11-09T17:14:53.669Z,67.52
2022-11-09T17:16:58.469Z,67.16
2022-11-09T17:19:08.825Z,67.78
2022-11-09T17:21:14.276Z,67.47
2022-11-09T17:23:19.307Z,67.43
2022-11-09T17:25:21.990Z,67.45
2022-11-09T17:27:24.679Z,67.54
2022-11-09T17:29:27.644Z,67.57
2022-11-09T17:31:39.821Z,67.65
2022-11-09T17:33:42.606Z,67.52
2022-11-09T17:35:45.484Z,67.54
2022-11-09T17:37:51.295Z,67.62
2022-11-09T17:39:53.971Z,67.65
2022-11-09T17:42:01.456Z,67.54
2022-11-09T17:44:04.604Z,67.64
2022-11-09T17:46:09.364Z,67.74
2022-11-09T17:48:13.769Z,67.76
2022-11-09T17:50:19.038Z,67.73
2022-11-09T17:52:21.975Z,67.73
2022-11-09T17:54:36.741Z,67.82
2022-11-09T17:56:40.353Z,67.93
2022-11-09T17:58:44.513Z,67.81
2022-11-09T18:00:47.297Z,68.09
2022-11-09T18:02:50.008Z,67.84
2022-11-09T18:04:54.117Z,68.00
2022-11-09T18:06:57.310Z,67.76
2022-11-09T18:09:34.419Z,67.85
2022-11-09T18:11:23.035Z,67.91
2022-11-09T18:13:26.027Z,67.84
2022-11-09T18:15:28.799Z,67.84
2022-11-09T18:17:31.703Z,67.86
2022-11-09T18:19:34.549Z,67.84
2022-11-09T18:21:38.595Z,67.74
2022-11-09T18:23:41.317Z,67.79
2022-11-09T18:25:44.112Z,67.76
2022-11-09T18:27:47.215Z,67.75
2022-11-09T18:29:49.914Z,67.87
2022-11-09T18:31:52.635Z,67.83
2022-11-09T18:33:55.413Z,67.86
2022-11-09T18:36:00.019Z,67.86
2022-11-09T18:38:04.276Z,67.99
2022-11-09T18:40:09.299Z,67.93
2022-11-09T18:42:12.075Z,67.74
2022-11-09T18:44:14.815Z,67.73
2022-11-09T18:46:20.713Z,67.90
2022-11-09T18:48:23.657Z,67.97
2022-11-09T18:50:28.542Z,67.93
2022-11-09T18:52:33.609Z,67.96
2022-11-09T18:54:40.409Z,67.98
2022-11-09T18:56:43.715Z,67.89
2022-11-09T18:58:46.912Z,67.94
2022-11-09T19:00:58.729Z,67.90
2022-11-09T19:03:01.644Z,67.84
2022-11-09T19:05:06.784Z,68.03
2022-11-09T19:07:09.489Z,67.92
2022-11-09T19:09:34.967Z,67.79
2022-11-09T19:11:39.071Z,67.84
2022-11-09T19:13:42.158Z,67.79
2022-11-09T19:15:46.782Z,67.76
2022-11-09T19:17:50.008Z,67.80
2022-11-09T19:19:52.732Z,67.78
2022-11-09T19:21:57.694Z,67.68
2022-11-09T19:24:00.847Z,67.95
2022-11-09T19:26:03.811Z,67.88
2022-11-09T19:28:08.045Z,68.00
2022-11-09T19:30:11.665Z,67.85
2022-11-09T19:32:14.356Z,67.76
2022-11-09T19:34:19.632Z,67.89
2022-11-09T19:36:32.260Z,67.82
2022-11-09T19:38:35.064Z,67.94
2022-11-09T19:40:40.023Z,67.75
2022-11-09T19:42:42.921Z,67.86
2022-11-09T19:44:48.917Z,67.83
2022-11-09T19:46:54.826Z,67.84
2022-11-09T19:48:58.064Z,67.78
2022-11-09T19:51:00.863Z,67.66
2022-11-09T19:53:03.615Z,67.71
2022-11-09T19:55:07.131Z,67.89
2022-11-09T19:57:09.855Z,67.76
2022-11-09T19:59:15.634Z,67.61
2022-11-09T20:01:20.206Z,67.79
2022-11-09T20:03:22.971Z,67.77
2022-11-09T20:05:25.699Z,67.75
2022-11-09T20:07:29.540Z,67.86
2022-11-09T20:09:32.555Z,67.59
2022-11-09T20:11:53.331Z,67.64
2022-11-09T20:13:56.002Z,67.67
2022-11-09T20:16:02.570Z,67.69
2022-11-09T20:18:06.797Z,67.70
2022-11-09T20:20:11.644Z,67.69
2022-11-09T20:22:14.179Z,67.58
2022-11-09T20:24:17.190Z,67.69
2022-11-09T20:26:20.357Z,67.97
2022-11-09T20:28:23.321Z,67.66
2022-11-09T20:30:26.614Z,67.66
2022-11-09T20:32:29.304Z,67.59
2022-11-09T20:34:33.342Z,67.54
2022-11-09T20:36:36.211Z,67.62
2022-11-09T20:38:39.753Z,67.71
2022-11-09T20:40:42.497Z,67.66
